createdAt,value
2024-04-09T00:00:31.618Z,14.20
2024-04-09T00:03:00.337Z,14.20
2024-04-09T00:05:33.456Z,14.20
2024-04-09T00:08:01.096Z,14.20
2024-04-09T00:10:33.031Z,14.30
2024-04-09T00:13:00.683Z,14.30
2024-04-09T00:15:30.676Z,14.30
2024-04-09T00:18:12.764Z,14.30
2024-04-09T00:20:43.934Z,14.30
2024-04-09T00:23:13.897Z,14.20
2024-04-09T00:25:41.151Z,14.20
2024-04-09T00:28:09.425Z,14.20
2024-04-09T00:30:36.701Z,14.20
2024-04-09T00:33:04.312Z,14.20
2024-04-09T00:35:32.826Z,14.20
2024-04-09T00:38:08.119Z,14.20
2024-04-09T00:40:37.705Z,14.10
2024-04-09T00:43:09.649Z,14.10
2024-04-09T00:45:38.417Z,14.10
2024-04-09T00:48:07.416Z,14.00
2024-04-09T00:50:36.302Z,14.00
2024-04-09T00:53:03.752Z,14.00
2024-04-09T00:55:33.999Z,13.90
2024-04-09T00:58:04.562Z,13.90
2024-04-09T01:00:35.127Z,13.80
2024-04-09T01:03:03.754Z,13.80
2024-04-09T01:05:33.133Z,13.80
2024-04-09T01:08:00.437Z,13.80
2024-04-09T01:10:33.760Z,13.70
2024-04-09T01:13:04.207Z,13.70
2024-04-09T01:15:34.683Z,13.60
2024-04-09T01:18:01.995Z,13.60
2024-04-09T01:20:29.243Z,13.60
2024-04-09T01:22:59.536Z,13.60
2024-04-09T01:25:26.757Z,13.60
2024-04-09T01:27:54.010Z,13.60
2024-04-09T01:30:25.262Z,13.60
2024-04-09T01:32:54.700Z,13.50
2024-04-09T01:35:22.140Z,13.50
2024-04-09T01:37:49.483Z,13.50
2024-04-09T01:40:22.526Z,13.40
2024-04-09T01:42:51.829Z,13.40
2024-04-09T01:45:19.152Z,13.30
2024-04-09T01:47:47.471Z,13.30
2024-04-09T01:50:16.118Z,13.30
2024-04-09T01:52:46.472Z,13.20
2024-04-09T01:55:13.775Z,13.20
2024-04-09T01:57:41.144Z,13.10
2024-04-09T02:00:21.636Z,13.10
2024-04-09T02:02:55.964Z,13.00
2024-04-09T02:05:28.358Z,13.00
2024-04-09T02:07:57.629Z,13.00
2024-04-09T02:10:29.961Z,13.00
2024-04-09T02:12:57.231Z,13.00
2024-04-09T02:15:26.419Z,13.00
2024-04-09T02:17:55.707Z,13.00
2024-04-09T02:20:24.783Z,13.00
2024-04-09T02:22:55.063Z,13.00
2024-04-09T02:25:23.072Z,12.90
2024-04-09T02:27:51.254Z,12.90
2024-04-09T02:30:21.078Z,12.80
2024-04-09T02:32:48.512Z,12.80
2024-04-09T02:35:21.377Z,12.70
2024-04-09T02:37:51.719Z,12.70
2024-04-09T02:40:20.949Z,12.70
2024-04-09T02:42:50.452Z,12.70
2024-04-09T02:45:19.393Z,12.70
2024-04-09T02:47:47.760Z,12.70
2024-04-09T02:50:18.125Z,12.70
2024-04-09T02:52:49.778Z,12.60
2024-04-09T02:55:20.620Z,12.60
2024-04-09T02:57:51.028Z,12.60
2024-04-09T03:00:22.889Z,12.60
2024-04-09T03:03:02.548Z,12.60
2024-04-09T03:05:32.651Z,12.50
2024-04-09T03:08:01.073Z,12.50
2024-04-09T03:10:34.574Z,12.40
2024-04-09T03:13:01.869Z,12.40
2024-04-09T03:15:31.898Z,12.40
2024-04-09T03:18:02.220Z,12.50
2024-04-09T03:20:29.554Z,12.40
2024-04-09T03:22:56.758Z,12.30
2024-04-09T03:25:25.960Z,12.30
2024-04-09T03:27:56.334Z,12.30
2024-04-09T03:30:26.716Z,12.30
2024-04-09T03:32:57.837Z,12.20
2024-04-09T03:35:26.668Z,12.20
2024-04-09T03:37:54.911Z,12.10
2024-04-09T03:40:25.977Z,12.00
2024-04-09T03:42:53.208Z,12.00
2024-04-09T03:45:20.409Z,11.90
2024-04-09T03:47:50.722Z,11.90
2024-04-09T03:50:17.931Z,11.90
2024-04-09T03:52:45.119Z,11.90
2024-04-09T03:55:13.264Z,11.90
2024-04-09T03:57:41.982Z,11.80
2024-04-09T04:00:13.775Z,11.70
2024-04-09T04:02:42.051Z,11.70
2024-04-09T04:05:09.232Z,11.60
2024-04-09T04:07:36.368Z,11.60
2024-04-09T04:10:03.769Z,11.50
2024-04-09T04:12:37.286Z,11.50
2024-04-09T04:15:08.171Z,11.40
2024-04-09T04:17:37.142Z,11.40
2024-04-09T04:20:04.660Z,11.30
2024-04-09T04:22:31.914Z,11.30
2024-04-09T04:24:59.161Z,11.20
2024-04-09T04:27:26.464Z,11.20
2024-04-09T04:29:53.875Z,11.20
2024-04-09T04:32:24.330Z,11.20
2024-04-09T04:34:54.052Z,11.20
2024-04-09T04:37:21.277Z,11.20
2024-04-09T04:39:48.621Z,11.20
2024-04-09T04:42:15.909Z,11.20
2024-04-09T04:44:45.587Z,11.20
2024-04-09T04:47:12.900Z,11.20
2024-04-09T04:49:41.248Z,11.10
2024-04-09T04:52:11.442Z,11.10
2024-04-09T04:54:44.875Z,11.10
2024-04-09T04:57:12.575Z,11.00
2024-04-09T04:59:42.889Z,11.10
2024-04-09T05:02:11.094Z,11.00
2024-04-09T05:04:41.698Z,11.00
2024-04-09T05:07:09.655Z,10.90
2024-04-09T05:09:37.982Z,10.90
2024-04-09T05:12:11.195Z,10.80
2024-04-09T05:14:41.479Z,10.80
2024-04-09T05:17:10.740Z,10.70
2024-04-09T05:19:38.076Z,10.70
2024-04-09T05:22:05.387Z,10.70
2024-04-09T05:24:36.386Z,10.70
2024-04-09T05:27:07.476Z,10.70
2024-04-09T05:29:35.745Z,10.60
2024-04-09T05:32:06.194Z,10.60
2024-04-09T05:34:39.393Z,10.50
2024-04-09T05:37:07.851Z,10.50
2024-04-09T05:39:36.216Z,10.50
2024-04-09T05:42:09.685Z,10.40
2024-04-09T05:44:38.084Z,10.50
2024-04-09T05:47:08.603Z,10.50
2024-04-09T05:49:37.451Z,10.40
2024-04-09T05:52:07.093Z,10.50
2024-04-09T05:54:39.829Z,10.50
2024-04-09T05:57:07.196Z,10.50
2024-04-09T05:59:37.520Z,10.50
2024-04-09T06:02:10.799Z,10.60
2024-04-09T06:04:39.228Z,10.50
2024-04-09T06:07:08.424Z,10.50
2024-04-09T06:09:36.820Z,10.50
2024-04-09T06:12:10.186Z,10.50
2024-04-09T06:14:38.493Z,10.50
2024-04-09T06:17:09.703Z,10.50
2024-04-09T06:19:38.082Z,10.50
2024-04-09T06:22:07.399Z,10.50
2024-04-09T06:24:37.884Z,10.60
2024-04-09T06:27:07.048Z,10.60
2024-04-09T06:29:37.334Z,10.60
2024-04-09T06:32:07.815Z,10.60
2024-04-09T06:34:37.143Z,10.70
2024-04-09T06:37:06.057Z,10.70
2024-04-09T06:39:34.442Z,10.70
2024-04-09T06:42:04.747Z,10.80
2024-04-09T06:44:33.260Z,11.00
2024-04-09T06:47:01.003Z,11.10
2024-04-09T06:49:29.298Z,11.10
2024-04-09T06:51:56.940Z,11.30
2024-04-09T06:54:24.254Z,11.30
2024-04-09T06:56:51.510Z,11.40
2024-04-09T06:59:22.073Z,11.50
2024-04-09T07:01:50.391Z,11.50
2024-04-09T07:04:20.811Z,11.60
2024-04-09T07:06:51.437Z,11.60
2024-04-09T07:09:19.388Z,11.70
2024-04-09T07:11:48.118Z,11.80
2024-04-09T07:14:16.293Z,11.90
2024-04-09T07:16:48.367Z,12.10
2024-04-09T07:19:15.848Z,12.20
2024-04-09T07:21:43.242Z,12.40
2024-04-09T07:24:11.210Z,12.50
2024-04-09T07:26:40.534Z,12.50
2024-04-09T07:29:07.808Z,12.40
2024-04-09T07:31:38.526Z,12.40
2024-04-09T07:34:05.909Z,12.30
2024-04-09T07:36:33.881Z,12.20
2024-04-09T07:39:02.249Z,12.30
2024-04-09T07:41:31.573Z,12.30
2024-04-09T07:44:01.985Z,12.20
2024-04-09T07:46:29.173Z,12.20
2024-04-09T07:49:01.666Z,12.30
2024-04-09T07:51:29.595Z,12.30
2024-04-09T07:53:58.928Z,12.20
2024-04-09T07:56:29.302Z,12.20
2024-04-09T07:58:56.632Z,12.20
2024-04-09T08:01:26.243Z,12.30
2024-04-09T08:03:53.880Z,12.40
2024-04-09T08:06:21.426Z,12.30
2024-04-09T08:08:52.978Z,12.30
2024-04-09T08:11:23.583Z,12.20
2024-04-09T08:13:51.425Z,12.10
2024-04-09T08:16:19.697Z,12.10
2024-04-09T08:18:47.129Z,12.10
2024-04-09T08:21:14.995Z,12.10
2024-04-09T08:23:42.224Z,12.10
2024-04-09T08:26:10.381Z,12.20
2024-04-09T08:28:38.982Z,12.20
2024-04-09T08:31:15.214Z,12.10
2024-04-09T08:33:43.601Z,12.20
2024-04-09T08:36:14.150Z,12.20
2024-04-09T08:38:41.432Z,12.20
2024-04-09T08:41:10.423Z,12.30
2024-04-09T08:43:41.166Z,12.30
2024-04-09T08:46:13.079Z,12.20
2024-04-09T08:48:44.961Z,12.20
2024-04-09T08:51:14.982Z,12.10
2024-04-09T08:53:48.726Z,12.10
2024-04-09T08:56:16.119Z,12.10
2024-04-09T08:58:47.346Z,12.10
2024-04-09T09:01:29.490Z,12.10
2024-04-09T09:03:59.426Z,12.10
2024-04-09T09:06:31.448Z,12.20
2024-04-09T09:09:00.115Z,12.30
2024-04-09T09:11:28.495Z,12.40
2024-04-09T09:14:06.024Z,12.60
2024-04-09T09:16:36.471Z,12.70
2024-04-09T09:19:07.113Z,12.60
2024-04-09T09:21:34.521Z,12.50
2024-04-09T09:24:05.195Z,12.50
2024-04-09T09:26:32.445Z,12.30
2024-04-09T09:29:09.581Z,12.20
2024-04-09T09:31:41.977Z,12.10
2024-04-09T09:34:12.011Z,12.10
2024-04-09T09:36:41.901Z,12.10
2024-04-09T09:39:11.001Z,12.10
2024-04-09T09:41:38.759Z,12.20
2024-04-09T09:44:09.580Z,12.20
2024-04-09T09:46:37.814Z,12.20
2024-04-09T09:49:12.457Z,12.30
2024-04-09T09:51:44.330Z,12.20
2024-04-09T09:54:14.913Z,12.10
2024-04-09T09:56:51.019Z,12.10
2024-04-09T09:59:21.130Z,12.10
2024-04-09T10:01:51.236Z,12.00
2024-04-09T10:04:27.625Z,11.90
2024-04-09T10:07:04.282Z,11.90
2024-04-09T10:09:51.294Z,11.90
2024-04-09T10:12:33.408Z,11.90
2024-04-09T10:15:06.326Z,11.90
2024-04-09T10:17:54.098Z,11.90
2024-04-09T10:20:27.288Z,11.90
2024-04-09T10:22:57.243Z,11.90
2024-04-09T10:25:25.890Z,12.00
2024-04-09T10:28:10.101Z,12.00
2024-04-09T10:30:39.176Z,12.10
2024-04-09T10:33:08.973Z,12.40
2024-04-09T10:35:37.626Z,12.80
2024-04-09T10:38:11.938Z,13.30
2024-04-09T10:40:39.254Z,13.70
2024-04-09T10:43:09.765Z,14.30
2024-04-09T10:45:51.528Z,14.90
2024-04-09T10:48:26.893Z,14.90
2024-04-09T10:50:54.844Z,14.70
2024-04-09T10:53:23.010Z,14.40
2024-04-09T10:55:50.381Z,14.00
2024-04-09T10:58:18.784Z,13.80
2024-04-09T11:00:56.998Z,13.90
2024-04-09T11:03:27.722Z,14.00
2024-04-09T11:05:56.259Z,13.80
2024-04-09T11:08:31.119Z,13.60
2024-04-09T11:11:02.600Z,13.40
2024-04-09T11:13:33.689Z,13.10
2024-04-09T11:16:03.321Z,13.00
2024-04-09T11:18:32.919Z,13.10
2024-04-09T11:21:02.537Z,13.20
2024-04-09T11:23:33.839Z,13.20
2024-04-09T11:26:06.638Z,13.20
2024-04-09T11:28:53.835Z,13.20
2024-04-09T11:31:27.091Z,13.20
2024-04-09T11:33:57.421Z,13.10
2024-04-09T11:36:31.849Z,13.00
2024-04-09T11:39:00.840Z,12.80
2024-04-09T11:41:31.436Z,12.70
2024-04-09T11:44:02.726Z,12.90
2024-04-09T11:46:33.143Z,13.10
2024-04-09T11:49:02.474Z,13.20
2024-04-09T11:51:32.301Z,13.40
2024-04-09T11:54:05.841Z,13.60
2024-04-09T11:56:34.055Z,13.60
2024-04-09T11:59:02.460Z,13.40
2024-04-09T12:01:33.209Z,13.40
2024-04-09T12:04:01.909Z,13.40
2024-04-09T12:06:32.432Z,13.20
2024-04-09T12:08:59.947Z,12.90
2024-04-09T12:11:27.903Z,12.80
2024-04-09T12:13:55.267Z,12.70
2024-04-09T12:16:22.555Z,12.60
2024-04-09T12:18:50.128Z,12.70
2024-04-09T12:21:17.716Z,12.80
2024-04-09T12:23:45.128Z,12.80
2024-04-09T12:26:13.382Z,12.70
2024-04-09T12:28:40.744Z,12.80
2024-04-09T12:31:09.068Z,13.10
2024-04-09T12:33:39.527Z,13.20
2024-04-09T12:36:16.193Z,13.20
2024-04-09T12:38:45.759Z,13.40
2024-04-09T12:41:13.506Z,13.70
2024-04-09T12:43:43.730Z,13.90
2024-04-09T12:46:11.526Z,13.80
2024-04-09T12:48:55.868Z,13.40
2024-04-09T12:51:34.383Z,12.90
2024-04-09T12:54:03.730Z,12.70
2024-04-09T12:56:34.293Z,12.70
2024-04-09T12:59:01.577Z,12.90
2024-04-09T13:01:30.926Z,12.90
2024-04-09T13:04:01.748Z,12.80
2024-04-09T13:06:29.292Z,12.70
2024-04-09T13:08:58.575Z,12.60
2024-04-09T13:11:26.994Z,12.60
2024-04-09T13:13:54.235Z,12.60
2024-04-09T13:18:55.877Z,12.60
2024-04-09T13:21:29.379Z,12.70
2024-04-09T13:23:56.591Z,12.80
2024-04-09T13:26:26.903Z,13.00
2024-04-09T13:29:02.417Z,13.20
2024-04-09T13:31:31.614Z,13.30
2024-04-09T13:33:58.994Z,13.30
2024-04-09T13:36:29.636Z,13.20
2024-04-09T13:39:00.287Z,12.80
2024-04-09T13:41:33.264Z,12.50
2024-04-09T13:44:03.686Z,12.40
2024-04-09T13:46:31.943Z,12.30
2024-04-09T13:48:59.463Z,12.30
2024-04-09T13:51:27.880Z,12.30
2024-04-09T13:53:55.728Z,12.40
2024-04-09T13:56:23.292Z,12.30
2024-04-09T13:58:52.648Z,12.30
2024-04-09T14:01:20.941Z,12.30
2024-04-09T14:03:48.213Z,12.30
2024-04-09T14:06:19.807Z,12.50
2024-04-09T14:08:47.162Z,12.70
2024-04-09T14:11:14.580Z,12.90
2024-04-09T14:13:48.856Z,13.00
2024-04-09T14:16:18.499Z,13.00
2024-04-09T14:18:48.672Z,13.00
2024-04-09T14:21:18.361Z,12.80
2024-04-09T14:23:45.604Z,12.70
2024-04-09T14:26:13.088Z,12.70
2024-04-09T14:28:43.737Z,12.70
2024-04-09T14:31:16.802Z,12.70
2024-04-09T14:33:52.514Z,12.80
2024-04-09T14:36:25.614Z,12.90
2024-04-09T14:38:53.597Z,13.10
2024-04-09T14:41:22.894Z,13.20
2024-04-09T14:43:53.513Z,13.30
2024-04-09T14:46:20.811Z,13.40
2024-04-09T14:48:49.874Z,13.50
2024-04-09T14:51:21.314Z,13.40
2024-04-09T14:53:48.537Z,13.40
2024-04-09T14:56:16.831Z,13.30
2024-04-09T14:58:46.094Z,13.20
2024-04-09T15:01:13.762Z,13.20
2024-04-09T15:03:43.118Z,13.30
2024-04-09T15:06:12.582Z,13.50
2024-04-09T15:08:42.891Z,13.60
2024-04-09T15:11:16.097Z,13.60
2024-04-09T15:13:43.649Z,13.50
2024-04-09T15:16:10.922Z,13.50
2024-04-09T15:18:44.235Z,13.50
2024-04-09T15:21:19.537Z,13.40
2024-04-09T15:23:47.057Z,13.30
2024-04-09T15:26:15.375Z,13.30
2024-04-09T15:28:45.813Z,13.30
2024-04-09T15:31:14.909Z,13.30
2024-04-09T15:33:48.129Z,13.40
2024-04-09T15:36:18.416Z,13.40
2024-04-09T15:38:48.752Z,13.30
2024-04-09T15:41:17.010Z,13.30
2024-04-09T15:43:46.080Z,13.30
2024-04-09T15:46:17.605Z,13.20
2024-04-09T15:48:45.142Z,13.20
2024-04-09T15:51:15.496Z,13.10
2024-04-09T15:53:43.880Z,13.10
2024-04-09T15:56:11.139Z,13.20
2024-04-09T15:58:41.978Z,13.10
2024-04-09T16:01:13.170Z,13.10
2024-04-09T16:03:44.477Z,13.00
2024-04-09T16:06:12.314Z,13.00
2024-04-09T16:08:45.849Z,12.90
2024-04-09T16:11:13.395Z,13.00
2024-04-09T16:13:44.785Z,13.00
2024-04-09T16:16:13.281Z,13.10
2024-04-09T16:18:43.785Z,13.10
2024-04-09T16:21:12.229Z,13.20
2024-04-09T16:23:39.433Z,13.30
2024-04-09T16:26:11.443Z,13.30
2024-04-09T16:28:40.855Z,13.20
2024-04-09T16:31:11.127Z,13.20
2024-04-09T16:33:39.482Z,13.20
2024-04-09T16:36:16.400Z,13.20
2024-04-09T16:38:44.712Z,13.20
2024-04-09T16:41:18.290Z,13.10
2024-04-09T16:43:47.120Z,13.20
2024-04-09T16:46:17.533Z,13.20
2024-04-09T16:48:51.009Z,13.20
2024-04-09T16:51:21.277Z,13.10
2024-04-09T16:53:48.663Z,13.00
2024-04-09T16:56:17.304Z,13.00
2024-04-09T16:58:44.692Z,13.00
2024-04-09T17:01:15.088Z,12.90
2024-04-09T17:03:45.733Z,12.90
2024-04-09T17:06:13.080Z,12.90
2024-04-09T17:08:40.367Z,12.80
2024-04-09T17:11:08.763Z,12.80
2024-04-09T17:13:37.803Z,12.80
2024-04-09T17:16:07.981Z,12.80
2024-04-09T17:18:37.011Z,12.70
2024-04-09T17:21:04.953Z,12.70
2024-04-09T17:23:35.372Z,12.60
2024-04-09T17:26:10.498Z,12.60
2024-04-09T17:28:39.850Z,12.60
2024-04-09T17:31:07.600Z,12.60
2024-04-09T17:33:35.957Z,12.60
2024-04-09T17:36:06.460Z,12.60
2024-04-09T17:38:38.587Z,12.50
2024-04-09T17:41:08.805Z,12.50
2024-04-09T17:43:36.723Z,12.50
2024-04-09T17:46:07.280Z,12.50
2024-04-09T17:48:36.753Z,12.50
2024-04-09T17:51:04.434Z,12.40
2024-04-09T17:53:37.701Z,12.40
2024-04-09T17:56:06.268Z,12.40
2024-04-09T17:58:33.531Z,12.50
2024-04-09T18:01:12.854Z,12.50
2024-04-09T18:03:47.547Z,12.40
2024-04-09T18:06:19.669Z,12.50
2024-04-09T18:08:47.024Z,12.50
2024-04-09T18:11:14.355Z,12.40
2024-04-09T18:13:41.718Z,12.40
2024-04-09T18:16:14.685Z,12.40
2024-04-09T18:18:45.800Z,12.30
2024-04-09T18:21:14.438Z,12.30
2024-04-09T18:23:49.092Z,12.30
2024-04-09T18:26:21.529Z,12.20
2024-04-09T18:28:50.465Z,12.20
2024-04-09T18:31:21.087Z,12.20
2024-04-09T18:33:50.482Z,12.10
2024-04-09T18:36:20.924Z,12.10
2024-04-09T18:38:50.254Z,12.10
2024-04-09T18:41:17.648Z,12.00
2024-04-09T18:43:45.736Z,12.00
2024-04-09T18:46:15.085Z,12.00
2024-04-09T18:48:43.558Z,12.00
2024-04-09T18:51:15.469Z,12.00
2024-04-09T18:53:44.801Z,12.00
2024-04-09T18:56:15.598Z,12.00
2024-04-09T18:58:45.864Z,12.00
2024-04-09T19:01:13.316Z,12.00
2024-04-09T19:03:43.777Z,12.00
2024-04-09T19:06:11.150Z,12.00
2024-04-09T19:08:41.983Z,12.00
2024-04-09T19:11:10.437Z,12.00
2024-04-09T19:13:40.825Z,12.00
2024-04-09T19:16:08.127Z,11.90
2024-04-09T19:18:35.852Z,11.90
2024-04-09T19:21:08.561Z,11.90
2024-04-09T19:23:36.177Z,11.90
2024-04-09T19:26:05.546Z,11.80
2024-04-09T19:28:33.131Z,11.80
2024-04-09T19:31:02.218Z,11.70
2024-04-09T19:33:30.036Z,11.70
2024-04-09T19:35:57.530Z,11.70
2024-04-09T19:38:25.880Z,11.70
2024-04-09T19:40:53.201Z,11.60
2024-04-09T19:43:33.957Z,11.50
2024-04-09T19:46:09.559Z,11.40
2024-04-09T19:48:40.218Z,11.30
2024-04-09T19:51:10.579Z,11.30
2024-04-09T19:53:50.370Z,11.20
2024-04-09T19:56:22.652Z,11.10
2024-04-09T19:58:51.119Z,11.00
2024-04-09T20:01:20.742Z,11.00
2024-04-09T20:03:51.298Z,10.90
2024-04-09T20:06:20.630Z,10.80
2024-04-09T20:08:53.152Z,10.80
2024-04-09T20:11:22.260Z,10.80
2024-04-09T20:13:52.138Z,10.70
2024-04-09T20:16:20.378Z,10.70
2024-04-09T20:18:49.911Z,10.60
2024-04-09T20:21:20.377Z,10.60
2024-04-09T20:23:48.524Z,10.60
2024-04-09T20:26:17.728Z,10.50
2024-04-09T20:28:46.054Z,10.50
2024-04-09T20:31:15.118Z,10.50
2024-04-09T20:33:42.989Z,10.40
2024-04-09T20:36:10.877Z,10.40
2024-04-09T20:38:39.732Z,10.40
2024-04-09T20:41:09.084Z,10.30
2024-04-09T20:43:37.382Z,10.30
2024-04-09T20:46:04.822Z,10.30
2024-04-09T20:48:35.198Z,10.20
2024-04-09T20:51:07.144Z,10.20
2024-04-09T20:53:37.596Z,10.20
2024-04-09T20:56:12.882Z,10.20
2024-04-09T20:58:43.143Z,10.20
2024-04-09T21:01:11.472Z,10.20
2024-04-09T21:03:42.363Z,10.20
2024-04-09T21:06:12.662Z,10.30
2024-04-09T21:08:44.126Z,10.30
2024-04-09T21:11:14.659Z,10.30
2024-04-09T21:13:42.000Z,10.30
2024-04-09T21:16:15.012Z,10.30
2024-04-09T21:18:46.425Z,10.30
2024-04-09T21:21:14.580Z,10.30
2024-04-09T21:23:43.185Z,10.20
2024-04-09T21:26:11.536Z,10.20
2024-04-09T21:28:40.866Z,10.20
2024-04-09T21:31:09.106Z,10.20
2024-04-09T21:33:37.606Z,10.20
2024-04-09T21:36:05.281Z,10.40
2024-04-09T21:38:33.532Z,10.40
2024-04-09T21:41:08.117Z,10.50
2024-04-09T21:43:37.476Z,10.60
2024-04-09T21:46:07.842Z,10.70
2024-04-09T21:48:35.262Z,10.80
2024-04-09T21:51:05.198Z,10.90
2024-04-09T21:53:33.713Z,11.00
2024-04-09T21:56:04.561Z,11.00
2024-04-09T21:58:35.490Z,11.10
2024-04-09T22:01:03.903Z,11.10
2024-04-09T22:03:33.324Z,11.20
2024-04-09T22:06:01.059Z,11.20
2024-04-09T22:08:28.440Z,11.20
2024-04-09T22:10:56.825Z,11.20
2024-04-09T22:13:24.168Z,11.20
2024-04-09T22:15:52.552Z,11.20
2024-04-09T22:18:23.036Z,11.20
2024-04-09T22:20:53.311Z,11.20
2024-04-09T22:23:20.589Z,11.20
2024-04-09T22:25:58.311Z,11.10
2024-04-09T22:28:26.177Z,11.10
2024-04-09T22:30:56.454Z,11.10
2024-04-09T22:33:24.083Z,11.10
2024-04-09T22:35:56.901Z,11.10
2024-04-09T22:38:24.470Z,11.10
2024-04-09T22:40:54.627Z,11.10
2024-04-09T22:43:21.988Z,11.10
2024-04-09T22:46:03.067Z,11.20
2024-04-09T22:48:33.551Z,11.20
2024-04-09T22:51:02.366Z,11.20
2024-04-09T22:53:30.822Z,11.20
2024-04-09T22:56:02.124Z,11.30
2024-04-09T22:58:29.796Z,11.30
2024-04-09T23:01:08.145Z,11.30
2024-04-09T23:03:39.168Z,11.30
2024-04-09T23:06:10.375Z,11.30
2024-04-09T23:08:40.861Z,11.30
2024-04-09T23:11:10.644Z,11.30
2024-04-09T23:13:41.044Z,11.30
2024-04-09T23:16:10.319Z,11.30
2024-04-09T23:18:40.239Z,11.30
2024-04-09T23:21:07.976Z,11.30
2024-04-09T23:23:36.211Z,11.30
2024-04-09T23:26:03.612Z,11.40
2024-04-09T23:28:34.113Z,11.40
2024-04-09T23:31:05.652Z,11.40
2024-04-09T23:33:33.079Z,11.40
2024-04-09T23:36:04.504Z,11.40
2024-04-09T23:38:35.212Z,11.40
2024-04-09T23:41:05.746Z,11.40
2024-04-09T23:43:35.075Z,11.40
2024-04-09T23:46:06.138Z,11.40
2024-04-09T23:48:34.539Z,11.30
2024-04-09T23:51:07.470Z,11.30
2024-04-09T23:53:34.840Z,11.30
2024-04-09T23:56:06.213Z,11.30
2024-04-09T23:58:39.396Z,11.30
